createdAt,value
2022-10-29T00:00:04.770Z,16.50
2022-10-29T00:01:09.995Z,16.50
2022-10-29T00:02:11.453Z,16.50
2022-10-29T00:03:12.904Z,16.50
2022-10-29T00:04:14.484Z,16.40
2022-10-29T00:05:16.429Z,16.40
2022-10-29T00:06:17.882Z,16.40
2022-10-29T00:07:19.236Z,16.30
2022-10-29T00:08:20.672Z,16.30
2022-10-29T00:09:22.045Z,16.30
2022-10-29T00:10:23.639Z,16.30
2022-10-29T00:11:25.109Z,16.30
2022-10-29T00:12:27.562Z,16.20
2022-10-29T00:13:29.240Z,16.30
2022-10-29T00:14:30.611Z,16.20
2022-10-29T00:15:32.004Z,16.30
2022-10-29T00:16:38.374Z,16.20
2022-10-29T00:17:39.914Z,16.20
2022-10-29T00:18:41.411Z,16.20
2022-10-29T00:19:43.131Z,16.20
2022-10-29T00:20:44.555Z,16.20
2022-10-29T00:21:45.904Z,16.10
2022-10-29T00:22:47.850Z,16.10
2022-10-29T00:23:50.424Z,16.10
2022-10-29T00:24:51.833Z,16.10
2022-10-29T00:26:00.178Z,16.10
2022-10-29T00:27:01.571Z,16.10
2022-10-29T00:28:02.962Z,16.10
2022-10-29T00:29:04.370Z,16.10
2022-10-29T00:30:06.485Z,16.10
2022-10-29T00:31:14.259Z,16.10
2022-10-29T00:32:15.731Z,16.20
2022-10-29T00:34:25.123Z,16.20
2022-10-29T00:35:26.756Z,16.20
2022-10-29T00:36:29.957Z,16.10
2022-10-29T00:37:31.616Z,16.10
2022-10-29T00:38:34.222Z,16.10
2022-10-29T00:39:35.651Z,16.20
2022-10-29T00:40:40.335Z,16.10
2022-10-29T00:41:42.541Z,16.10
2022-10-29T00:42:43.891Z,16.10
2022-10-29T00:43:51.100Z,16.10
2022-10-29T00:44:52.735Z,16.10
2022-10-29T00:46:08.887Z,16.10
2022-10-29T00:47:30.280Z,16.10
2022-10-29T00:48:39.119Z,16.10
2022-10-29T00:49:42.421Z,16.10
2022-10-29T00:50:46.533Z,16.10
2022-10-29T00:51:48.414Z,16.00
2022-10-29T00:52:52.279Z,16.00
2022-10-29T00:54:02.888Z,16.00
2022-10-29T00:55:07.118Z,16.00
2022-10-29T00:56:09.086Z,16.00
2022-10-29T00:57:15.617Z,16.00
2022-10-29T00:58:17.449Z,16.00
2022-10-29T00:59:19.423Z,16.00
2022-10-29T01:00:21.810Z,16.10
2022-10-29T01:01:23.473Z,16.10
2022-10-29T01:02:26.085Z,16.10
2022-10-29T01:03:27.879Z,16.10
2022-10-29T01:04:30.942Z,16.10
2022-10-29T01:05:34.455Z,16.10
2022-10-29T01:06:38.666Z,16.10
2022-10-29T01:07:40.076Z,16.10
2022-10-29T01:08:41.679Z,16.10
2022-10-29T01:09:43.487Z,16.10
2022-10-29T01:11:04.852Z,16.10
2022-10-29T01:12:50.308Z,16.10
2022-10-29T01:14:16.446Z,16.10
2022-10-29T01:15:32.194Z,16.20
2022-10-29T01:16:54.475Z,16.20
2022-10-29T01:18:11.870Z,16.20
2022-10-29T01:19:35.238Z,16.30
2022-10-29T01:20:42.331Z,16.30
2022-10-29T01:21:49.780Z,16.20
2022-10-29T01:23:22.687Z,16.20
2022-10-29T01:25:11.760Z,16.20
2022-10-29T01:26:59.096Z,16.30
2022-10-29T01:28:09.539Z,16.30
2022-10-29T01:29:29.302Z,16.20
2022-10-29T01:30:42.672Z,16.20
2022-10-29T01:31:44.045Z,16.30
2022-10-29T01:32:54.727Z,16.20
2022-10-29T01:34:24.113Z,16.20
2022-10-29T01:35:53.305Z,16.20
2022-10-29T01:36:54.696Z,16.20
2022-10-29T01:38:38.297Z,16.30
2022-10-29T01:39:55.236Z,16.30
2022-10-29T01:41:23.396Z,16.30
2022-10-29T01:42:33.850Z,16.30
2022-10-29T01:43:45.199Z,16.30
2022-10-29T01:45:04.606Z,16.30
2022-10-29T01:46:22.773Z,16.20
2022-10-29T01:47:30.807Z,16.30
2022-10-29T01:48:37.737Z,16.20
2022-10-29T01:49:44.564Z,16.20
2022-10-29T01:50:51.589Z,16.20
2022-10-29T01:51:54.983Z,16.20
2022-10-29T01:52:57.910Z,16.20
2022-10-29T01:54:01.415Z,16.10
2022-10-29T01:55:04.031Z,16.10
2022-10-29T01:56:05.923Z,16.10
2022-10-29T01:57:29.708Z,16.10
2022-10-29T01:58:32.863Z,16.20
2022-10-29T01:59:35.951Z,16.20
2022-10-29T02:01:23.526Z,16.20
2022-10-29T02:02:47.259Z,16.20
2022-10-29T02:04:07.985Z,16.20
2022-10-29T02:05:12.781Z,16.30
2022-10-29T02:07:03.656Z,16.20
2022-10-29T02:08:43.151Z,16.30
2022-10-29T02:09:44.524Z,16.20
2022-10-29T02:11:04.881Z,16.20
2022-10-29T02:12:27.276Z,16.20
2022-10-29T02:13:33.121Z,16.20
2022-10-29T02:14:42.194Z,16.20
2022-10-29T02:15:51.064Z,16.20
2022-10-29T02:16:53.491Z,16.20
2022-10-29T02:18:03.467Z,16.30
2022-10-29T02:19:05.774Z,16.30
2022-10-29T02:20:10.504Z,16.30
2022-10-29T02:21:16.850Z,16.20
2022-10-29T02:22:18.255Z,16.20
2022-10-29T02:23:19.914Z,16.20
2022-10-29T02:24:21.292Z,16.20
2022-10-29T02:25:23.619Z,16.20
2022-10-29T02:26:25.131Z,16.30
2022-10-29T02:27:26.609Z,16.30
2022-10-29T02:28:27.963Z,16.30
2022-10-29T02:29:29.391Z,16.30
2022-10-29T02:30:30.949Z,16.30
2022-10-29T02:31:32.448Z,16.30
2022-10-29T02:32:34.309Z,16.30
2022-10-29T02:33:36.007Z,16.30
2022-10-29T02:34:37.737Z,16.30
2022-10-29T02:35:39.271Z,16.30
2022-10-29T02:36:40.932Z,16.30
2022-10-29T02:37:43.233Z,16.20
2022-10-29T02:38:44.695Z,16.20
2022-10-29T02:39:46.160Z,16.20
2022-10-29T02:40:47.646Z,16.20
2022-10-29T02:41:49.332Z,16.20
2022-10-29T02:42:50.775Z,16.10
2022-10-29T02:43:52.360Z,16.10
2022-10-29T02:44:53.870Z,16.00
2022-10-29T02:46:30.564Z,16.00
2022-10-29T02:47:32.087Z,16.00
2022-10-29T02:48:33.487Z,16.00
2022-10-29T02:49:34.936Z,15.90
2022-10-29T02:50:36.350Z,16.00
2022-10-29T02:51:37.912Z,16.00
2022-10-29T02:52:40.250Z,15.90
2022-10-29T02:53:43.110Z,16.00
2022-10-29T02:54:44.502Z,16.00
2022-10-29T02:55:46.121Z,16.00
2022-10-29T02:56:47.548Z,16.00
2022-10-29T02:57:49.286Z,16.00
2022-10-29T02:58:50.707Z,16.00
2022-10-29T02:59:52.120Z,15.90
2022-10-29T03:00:53.979Z,15.90
2022-10-29T03:01:55.552Z,15.80
2022-10-29T03:02:57.150Z,15.90
2022-10-29T03:03:59.036Z,15.90
2022-10-29T03:05:00.566Z,15.80
2022-10-29T03:06:01.965Z,15.80
2022-10-29T03:07:03.357Z,15.90
2022-10-29T03:08:05.057Z,15.90
2022-10-29T03:09:07.008Z,15.90
2022-10-29T03:10:08.921Z,15.90
2022-10-29T03:11:10.895Z,15.90
2022-10-29T03:12:12.384Z,15.80
2022-10-29T03:13:14.825Z,15.90
2022-10-29T03:14:16.278Z,15.90
2022-10-29T03:15:17.678Z,15.80
2022-10-29T03:16:19.060Z,15.80
2022-10-29T03:17:20.474Z,15.80
2022-10-29T03:18:22.145Z,15.80
2022-10-29T03:19:24.013Z,15.80
2022-10-29T03:20:25.806Z,15.70
2022-10-29T03:21:27.739Z,15.70
2022-10-29T03:22:29.314Z,15.70
2022-10-29T03:23:31.075Z,15.70
2022-10-29T03:24:32.763Z,15.70
2022-10-29T03:25:34.217Z,15.70
2022-10-29T03:26:35.694Z,15.80
2022-10-29T03:27:46.492Z,15.80
2022-10-29T03:28:48.126Z,15.70
2022-10-29T03:29:49.945Z,15.70
2022-10-29T03:30:51.301Z,15.70
2022-10-29T03:31:53.166Z,15.80
2022-10-29T03:32:54.829Z,15.70
2022-10-29T03:33:56.775Z,15.70
2022-10-29T03:34:59.914Z,15.70
2022-10-29T03:36:05.438Z,15.70
2022-10-29T03:37:06.852Z,15.60
2022-10-29T03:38:08.255Z,15.60
2022-10-29T03:39:09.632Z,15.60
2022-10-29T03:40:11.565Z,15.60
2022-10-29T03:41:13.338Z,15.50
2022-10-29T03:42:14.724Z,15.60
2022-10-29T03:43:16.584Z,15.60
2022-10-29T03:44:18.047Z,15.60
2022-10-29T03:45:19.536Z,15.60
2022-10-29T03:46:20.944Z,15.50
2022-10-29T03:47:22.333Z,15.50
2022-10-29T03:48:25.668Z,15.50
2022-10-29T03:49:27.044Z,15.50
2022-10-29T03:50:28.389Z,15.50
2022-10-29T03:51:29.918Z,15.50
2022-10-29T03:52:31.512Z,15.50
2022-10-29T03:53:34.246Z,15.50
2022-10-29T03:54:35.759Z,15.50
2022-10-29T03:55:37.412Z,15.40
2022-10-29T03:56:38.782Z,15.40
2022-10-29T03:57:40.174Z,15.40
2022-10-29T03:58:41.980Z,15.40
2022-10-29T03:59:45.914Z,15.40
2022-10-29T04:01:04.756Z,15.40
2022-10-29T04:02:07.252Z,15.40
2022-10-29T04:03:08.804Z,15.40
2022-10-29T04:04:10.591Z,15.40
2022-10-29T04:05:12.149Z,15.40
2022-10-29T04:06:15.768Z,15.40
2022-10-29T04:07:17.264Z,15.40
2022-10-29T04:08:18.643Z,15.30
2022-10-29T04:09:20.006Z,15.40
2022-10-29T04:10:21.761Z,15.40
2022-10-29T04:11:23.729Z,15.40
2022-10-29T04:12:25.156Z,15.30
2022-10-29T04:13:26.803Z,15.30
2022-10-29T04:14:28.206Z,15.30
2022-10-29T04:15:29.723Z,15.40
2022-10-29T04:16:31.125Z,15.30
2022-10-29T04:17:32.698Z,15.30
2022-10-29T04:18:34.716Z,15.30
2022-10-29T04:19:36.151Z,15.30
2022-10-29T04:21:05.978Z,15.20
2022-10-29T04:28:50.026Z,15.20
2022-10-29T04:29:51.423Z,15.20
2022-10-29T04:30:53.255Z,15.20
2022-10-29T04:31:54.980Z,15.20
2022-10-29T04:32:58.899Z,15.20
2022-10-29T04:34:00.826Z,15.20
2022-10-29T04:35:02.408Z,15.20
2022-10-29T04:36:04.590Z,15.20
2022-10-29T04:37:06.503Z,15.20
2022-10-29T04:38:09.068Z,15.20
2022-10-29T04:39:10.676Z,15.20
2022-10-29T04:40:12.483Z,15.20
2022-10-29T04:41:14.340Z,15.20
2022-10-29T04:42:15.821Z,15.20
2022-10-29T04:43:17.850Z,15.20
2022-10-29T04:44:20.093Z,15.20
2022-10-29T04:45:21.641Z,15.20
2022-10-29T04:46:23.485Z,15.20
2022-10-29T04:47:25.048Z,15.10
2022-10-29T04:48:28.074Z,15.10
2022-10-29T04:49:30.119Z,15.10
2022-10-29T04:50:32.683Z,15.20
2022-10-29T04:51:34.101Z,15.20
2022-10-29T04:52:35.635Z,15.20
2022-10-29T04:53:39.739Z,15.20
2022-10-29T04:54:41.184Z,15.20
2022-10-29T04:55:43.424Z,15.20
2022-10-29T04:56:44.830Z,15.20
2022-10-29T04:57:52.421Z,15.10
2022-10-29T04:58:53.842Z,15.20
2022-10-29T04:59:55.502Z,15.20
2022-10-29T05:01:05.147Z,15.20
2022-10-29T05:02:06.855Z,15.10
2022-10-29T05:03:09.017Z,15.10
2022-10-29T05:04:10.923Z,15.10
2022-10-29T05:05:12.322Z,15.10
2022-10-29T05:06:13.892Z,15.10
2022-10-29T05:07:15.396Z,15.10
2022-10-29T05:08:17.965Z,15.00
2022-10-29T05:09:19.381Z,15.00
2022-10-29T05:10:20.896Z,15.10
2022-10-29T05:11:22.320Z,15.10
2022-10-29T05:12:23.714Z,15.00
2022-10-29T05:13:25.076Z,15.10
2022-10-29T05:14:26.494Z,15.10
2022-10-29T05:15:29.320Z,15.10
2022-10-29T05:16:30.702Z,15.10
2022-10-29T05:17:36.073Z,15.10
2022-10-29T05:18:38.484Z,15.00
2022-10-29T05:19:40.066Z,15.10
2022-10-29T05:20:41.433Z,15.00
2022-10-29T05:21:43.194Z,15.00
2022-10-29T05:22:44.912Z,15.00
2022-10-29T05:23:46.349Z,15.10
2022-10-29T05:24:47.920Z,15.00
2022-10-29T05:25:51.244Z,15.00
2022-10-29T05:26:52.642Z,15.00
2022-10-29T05:28:05.330Z,15.00
2022-10-29T05:29:06.756Z,15.00
2022-10-29T05:30:08.924Z,14.90
2022-10-29T05:31:10.553Z,14.90
2022-10-29T05:32:12.171Z,14.90
2022-10-29T05:33:19.927Z,14.90
2022-10-29T05:34:21.578Z,14.90
2022-10-29T05:35:23.463Z,14.90
2022-10-29T05:36:25.320Z,15.00
2022-10-29T05:37:27.839Z,15.00
2022-10-29T05:38:29.490Z,15.00
2022-10-29T05:39:30.887Z,15.00
2022-10-29T05:40:33.209Z,15.00
2022-10-29T05:41:34.593Z,15.00
2022-10-29T05:42:38.097Z,14.90
2022-10-29T05:43:39.444Z,15.00
2022-10-29T05:44:41.228Z,15.00
2022-10-29T05:45:42.666Z,15.00
2022-10-29T05:46:44.132Z,14.90
2022-10-29T05:47:45.671Z,14.90
2022-10-29T05:48:47.190Z,15.00
2022-10-29T05:49:48.574Z,15.00
2022-10-29T05:50:50.128Z,14.90
2022-10-29T05:51:53.076Z,14.90
2022-10-29T05:53:06.512Z,14.90
2022-10-29T05:54:08.116Z,14.90
2022-10-29T05:55:09.808Z,15.00
2022-10-29T05:56:11.373Z,14.90
2022-10-29T05:57:12.888Z,14.90
2022-10-29T05:58:14.625Z,15.00
2022-10-29T05:59:16.121Z,15.00
2022-10-29T06:00:17.683Z,15.00
2022-10-29T06:01:22.165Z,15.00
2022-10-29T06:02:23.704Z,14.90
2022-10-29T06:03:25.199Z,14.90
2022-10-29T06:04:26.623Z,15.00
2022-10-29T06:05:28.927Z,15.00
2022-10-29T06:06:31.333Z,14.90
2022-10-29T06:07:32.814Z,14.90
2022-10-29T06:08:34.243Z,14.90
2022-10-29T06:09:35.629Z,14.90
2022-10-29T06:10:37.144Z,14.90
2022-10-29T06:11:38.536Z,14.90
2022-10-29T06:12:39.900Z,14.90
2022-10-29T06:13:41.284Z,15.00
2022-10-29T06:14:42.962Z,15.00
2022-10-29T06:15:45.725Z,15.00
2022-10-29T06:16:47.182Z,15.00
2022-10-29T06:17:49.273Z,15.10
2022-10-29T06:18:50.735Z,15.10
2022-10-29T06:19:52.120Z,15.00
2022-10-29T06:20:54.914Z,15.00
2022-10-29T06:21:59.445Z,15.10
2022-10-29T06:23:02.102Z,15.10
2022-10-29T06:24:03.875Z,15.00
2022-10-29T06:25:05.858Z,15.00
2022-10-29T06:26:07.494Z,15.00
2022-10-29T06:27:09.532Z,15.00
2022-10-29T06:28:15.057Z,15.10
2022-10-29T06:29:16.468Z,15.10
2022-10-29T06:30:17.881Z,15.10
2022-10-29T06:31:19.378Z,15.10
2022-10-29T06:32:20.847Z,15.20
2022-10-29T06:33:22.357Z,15.20
2022-10-29T06:34:23.929Z,15.20
2022-10-29T06:35:25.532Z,15.20
2022-10-29T06:36:27.679Z,15.20
2022-10-29T06:37:33.133Z,15.20
2022-10-29T06:38:34.546Z,15.30
2022-10-29T06:39:35.966Z,15.20
2022-10-29T06:40:37.389Z,15.20
2022-10-29T06:41:38.870Z,15.20
2022-10-29T06:42:40.940Z,15.20
2022-10-29T06:43:42.408Z,15.20
2022-10-29T06:44:43.909Z,15.20
2022-10-29T06:45:45.280Z,15.10
2022-10-29T06:46:46.763Z,15.20
2022-10-29T06:47:48.385Z,15.20
2022-10-29T06:48:49.765Z,15.20
2022-10-29T06:49:51.219Z,15.20
2022-10-29T06:50:52.847Z,15.20
2022-10-29T06:51:54.246Z,15.20
2022-10-29T06:53:03.723Z,15.20
2022-10-29T06:54:05.170Z,15.20
2022-10-29T06:55:08.509Z,15.30
2022-10-29T06:56:09.874Z,15.30
2022-10-29T06:57:11.227Z,15.30
2022-10-29T06:58:35.366Z,15.30
2022-10-29T06:59:36.760Z,15.30
2022-10-29T07:00:38.528Z,15.30
2022-10-29T07:01:40.117Z,15.30
2022-10-29T07:02:41.568Z,15.40
2022-10-29T07:03:42.971Z,15.30
2022-10-29T07:04:44.446Z,15.40
2022-10-29T07:05:46.809Z,15.40
2022-10-29T07:06:48.327Z,15.40
2022-10-29T07:07:50.088Z,15.40
2022-10-29T07:08:51.531Z,15.40
2022-10-29T07:09:52.976Z,15.40
2022-10-29T07:10:54.711Z,15.40
2022-10-29T07:11:56.492Z,15.50
2022-10-29T07:12:58.314Z,15.50
2022-10-29T07:14:00.151Z,15.50
2022-10-29T07:15:01.734Z,15.50
2022-10-29T07:16:03.231Z,15.50
2022-10-29T07:17:04.733Z,15.50
2022-10-29T07:18:07.390Z,15.50
2022-10-29T07:19:08.783Z,15.50
2022-10-29T07:20:10.814Z,15.60
2022-10-29T07:21:13.811Z,15.60
2022-10-29T07:22:15.383Z,15.60
2022-10-29T07:23:16.872Z,15.60
2022-10-29T07:24:18.646Z,15.70
2022-10-29T07:25:20.185Z,15.60
2022-10-29T07:26:21.671Z,15.70
2022-10-29T07:27:23.606Z,15.70
2022-10-29T07:28:25.634Z,15.70
2022-10-29T07:29:27.085Z,15.70
2022-10-29T07:30:28.754Z,15.70
2022-10-29T07:31:31.090Z,15.70
2022-10-29T07:32:32.529Z,15.70
2022-10-29T07:33:34.074Z,15.80
2022-10-29T07:34:35.841Z,15.80
2022-10-29T07:35:37.528Z,15.80
2022-10-29T07:36:39.109Z,15.90
2022-10-29T07:37:40.549Z,15.90
2022-10-29T07:38:41.976Z,15.90
2022-10-29T07:39:43.348Z,15.90
2022-10-29T07:40:50.035Z,16.00
2022-10-29T07:41:53.068Z,16.00
2022-10-29T07:42:57.104Z,16.00
2022-10-29T07:43:59.071Z,16.00
2022-10-29T07:45:00.435Z,16.10
2022-10-29T07:46:01.850Z,16.10
2022-10-29T07:47:03.314Z,16.10
2022-10-29T07:48:09.817Z,16.20
2022-10-29T07:49:11.252Z,16.20
2022-10-29T07:50:13.145Z,16.30
2022-10-29T07:51:14.688Z,16.30
2022-10-29T07:52:16.381Z,16.30
2022-10-29T07:53:17.860Z,16.30
2022-10-29T07:54:19.273Z,16.40
2022-10-29T07:55:20.884Z,16.40
2022-10-29T07:56:22.288Z,16.40
2022-10-29T07:57:23.981Z,16.40
2022-10-29T07:58:26.444Z,16.50
2022-10-29T07:59:28.043Z,16.50
2022-10-29T08:00:31.047Z,16.50
2022-10-29T08:01:32.987Z,16.50
2022-10-29T08:02:34.536Z,16.60
2022-10-29T08:03:36.151Z,16.60
2022-10-29T08:04:37.651Z,16.60
2022-10-29T08:05:41.613Z,16.60
2022-10-29T08:06:44.332Z,16.60
2022-10-29T08:07:45.720Z,16.60
2022-10-29T08:08:47.302Z,16.60
2022-10-29T08:09:48.999Z,16.60
2022-10-29T08:10:50.387Z,16.70
2022-10-29T08:11:52.460Z,16.70
2022-10-29T08:12:56.517Z,16.70
2022-10-29T08:13:58.609Z,16.70
2022-10-29T08:15:00.319Z,16.70
2022-10-29T08:16:01.774Z,16.80
2022-10-29T08:17:03.332Z,16.80
2022-10-29T08:18:11.062Z,16.80
2022-10-29T08:19:12.617Z,16.90
2022-10-29T08:20:15.048Z,16.90
2022-10-29T08:21:16.784Z,17.00
2022-10-29T08:22:18.248Z,17.00
2022-10-29T08:23:19.874Z,17.10
2022-10-29T08:24:21.235Z,17.10
2022-10-29T08:25:22.872Z,17.20
2022-10-29T08:26:24.386Z,17.20
2022-10-29T08:27:25.801Z,17.20
2022-10-29T08:28:28.446Z,17.30
2022-10-29T08:29:31.873Z,17.30
2022-10-29T08:30:34.709Z,17.30
2022-10-29T08:31:36.145Z,17.30
2022-10-29T08:32:44.177Z,17.30
2022-10-29T08:33:48.127Z,17.20
2022-10-29T08:34:49.580Z,17.20
2022-10-29T08:35:51.350Z,17.20
2022-10-29T08:36:52.811Z,17.20
2022-10-29T08:37:54.549Z,17.10
2022-10-29T08:38:56.296Z,17.10
2022-10-29T08:39:58.046Z,17.00
2022-10-29T08:41:25.590Z,17.00
2022-10-29T08:42:56.496Z,17.00
2022-10-29T08:44:03.805Z,17.00
2022-10-29T08:45:13.934Z,17.00
2022-10-29T08:46:40.202Z,17.00
2022-10-29T08:47:53.683Z,17.00
2022-10-29T08:49:03.081Z,17.10
2022-10-29T08:50:29.891Z,17.20
2022-10-29T08:51:38.516Z,17.30
2022-10-29T08:52:53.047Z,17.30
2022-10-29T08:55:35.302Z,17.50
2022-10-29T08:56:40.158Z,17.50
2022-10-29T08:57:51.968Z,17.50
2022-10-29T08:59:02.487Z,17.60
2022-10-29T09:00:14.624Z,17.60
2022-10-29T09:01:18.640Z,17.70
2022-10-29T09:02:20.930Z,17.70
2022-10-29T09:03:22.826Z,17.80
2022-10-29T09:04:38.206Z,17.80
2022-10-29T09:05:48.561Z,17.80
2022-10-29T09:07:17.919Z,17.80
2022-10-29T09:08:45.992Z,17.90
2022-10-29T09:09:57.277Z,17.90
2022-10-29T09:11:24.096Z,17.80
2022-10-29T09:12:58.429Z,17.80
2022-10-29T09:14:19.146Z,17.80
2022-10-29T09:16:01.552Z,17.90
2022-10-29T09:17:14.703Z,18.00
2022-10-29T09:18:29.197Z,18.00
2022-10-29T09:19:51.865Z,18.10
2022-10-29T09:21:14.026Z,18.10
2022-10-29T09:22:22.906Z,18.20
2022-10-29T09:23:57.739Z,18.20
2022-10-29T09:25:28.734Z,18.20
2022-10-29T09:26:43.833Z,18.30
2022-10-29T09:28:08.562Z,18.30
2022-10-29T09:29:28.677Z,18.30
2022-10-29T09:30:31.438Z,18.30
2022-10-29T09:31:46.002Z,18.30
2022-10-29T09:33:01.448Z,18.40
2022-10-29T09:34:17.993Z,18.40
2022-10-29T09:35:21.829Z,18.40
2022-10-29T09:36:24.738Z,18.40
2022-10-29T09:37:49.353Z,18.50
2022-10-29T09:38:59.288Z,18.50
2022-10-29T09:40:04.394Z,18.50
2022-10-29T09:41:06.180Z,18.50
2022-10-29T09:42:15.195Z,18.50
2022-10-29T09:43:39.166Z,18.60
2022-10-29T09:44:53.483Z,18.70
2022-10-29T09:46:01.189Z,18.70
2022-10-29T09:47:18.692Z,18.80
2022-10-29T09:48:51.282Z,18.80
2022-10-29T09:50:10.350Z,18.70
2022-10-29T09:51:25.712Z,18.60
2022-10-29T09:52:32.368Z,18.70
2022-10-29T09:53:34.181Z,18.70
2022-10-29T09:54:36.043Z,18.70
2022-10-29T09:55:43.713Z,18.70
2022-10-29T09:56:53.359Z,18.70
2022-10-29T09:57:58.062Z,18.70
2022-10-29T09:59:24.913Z,18.70
2022-10-29T10:00:29.482Z,18.70
2022-10-29T10:01:30.938Z,18.80
2022-10-29T10:02:38.921Z,18.80
2022-10-29T10:03:47.021Z,18.80
2022-10-29T10:04:54.208Z,18.80
2022-10-29T10:06:07.907Z,18.80
2022-10-29T10:07:17.866Z,18.80
2022-10-29T10:08:19.234Z,18.80
2022-10-29T10:09:20.645Z,18.80
2022-10-29T10:10:23.916Z,18.80
2022-10-29T10:11:47.251Z,18.80
2022-10-29T10:12:50.427Z,18.80
2022-10-29T10:13:56.478Z,18.90
2022-10-29T10:15:16.032Z,18.80
2022-10-29T10:16:24.858Z,18.80
2022-10-29T10:17:26.300Z,18.90
2022-10-29T10:18:48.199Z,19.00
2022-10-29T10:19:49.619Z,19.00
2022-10-29T10:21:13.581Z,19.00
2022-10-29T10:22:24.255Z,19.10
2022-10-29T10:23:28.215Z,19.20
2022-10-29T10:24:34.264Z,19.20
2022-10-29T10:25:40.013Z,19.20
2022-10-29T10:26:45.508Z,19.30
2022-10-29T10:27:47.320Z,19.40
2022-10-29T10:29:14.477Z,19.50
2022-10-29T10:30:17.921Z,19.50
2022-10-29T10:31:19.459Z,19.50
2022-10-29T10:32:25.946Z,19.40
2022-10-29T10:33:27.443Z,19.40
2022-10-29T10:34:35.013Z,19.50
2022-10-29T10:35:38.037Z,19.50
2022-10-29T10:36:42.829Z,19.50
2022-10-29T10:37:45.406Z,19.70
2022-10-29T10:38:55.291Z,19.70
2022-10-29T10:40:06.556Z,19.70
2022-10-29T10:41:10.665Z,19.80
2022-10-29T10:42:27.531Z,19.80
2022-10-29T10:43:29.230Z,19.80
2022-10-29T10:44:31.118Z,19.90
2022-10-29T10:45:37.627Z,19.90
2022-10-29T10:46:42.421Z,19.90
2022-10-29T10:47:50.774Z,19.90
2022-10-29T10:49:02.313Z,20.00
2022-10-29T10:50:31.570Z,20.00
2022-10-29T10:51:36.128Z,20.00
2022-10-29T10:52:37.693Z,20.00
2022-10-29T10:53:41.431Z,20.10
2022-10-29T10:54:58.496Z,20.10
2022-10-29T10:55:59.896Z,20.20
2022-10-29T10:57:17.609Z,20.30
2022-10-29T10:58:40.833Z,20.40
2022-10-29T11:00:07.639Z,20.50
2022-10-29T11:01:11.761Z,20.60
2022-10-29T11:02:28.303Z,20.60
2022-10-29T11:03:45.199Z,20.70
2022-10-29T11:05:00.961Z,20.80
2022-10-29T11:06:15.022Z,20.80
2022-10-29T11:07:17.971Z,20.90
2022-10-29T11:08:20.982Z,21.00
2022-10-29T11:09:28.210Z,21.00
2022-10-29T11:10:48.502Z,21.10
2022-10-29T11:11:58.946Z,21.10
2022-10-29T11:13:05.074Z,21.00
2022-10-29T11:14:34.609Z,21.00
2022-10-29T11:15:48.438Z,21.00
2022-10-29T11:16:56.418Z,21.10
2022-10-29T11:18:18.294Z,21.10
2022-10-29T11:19:26.325Z,21.10
2022-10-29T11:20:32.495Z,21.10
2022-10-29T11:21:48.389Z,21.20
2022-10-29T11:23:11.145Z,21.30
2022-10-29T11:24:18.220Z,21.30
2022-10-29T11:25:31.853Z,21.40
2022-10-29T11:26:48.840Z,21.50
2022-10-29T11:28:00.025Z,21.50
2022-10-29T11:29:23.474Z,21.50
2022-10-29T11:30:26.833Z,21.60
2022-10-29T11:32:19.498Z,21.60
2022-10-29T11:33:43.606Z,21.60
2022-10-29T11:35:11.366Z,21.80
2022-10-29T11:36:19.831Z,21.90
2022-10-29T11:37:37.505Z,21.90
2022-10-29T11:39:08.870Z,22.00
2022-10-29T11:40:16.060Z,22.00
2022-10-29T11:41:26.411Z,22.00
2022-10-29T11:42:27.878Z,22.00
2022-10-29T11:43:29.223Z,22.00
2022-10-29T11:44:37.316Z,22.00
2022-10-29T11:46:17.982Z,22.00
2022-10-29T11:47:49.292Z,22.10
2022-10-29T11:49:15.546Z,22.10
2022-10-29T11:50:34.580Z,22.20
2022-10-29T11:51:59.494Z,22.10
2022-10-29T11:53:18.945Z,22.20
2022-10-29T11:54:23.149Z,22.20
2022-10-29T11:55:49.670Z,22.20
2022-10-29T11:56:58.290Z,22.30
2022-10-29T11:58:09.992Z,22.40
2022-10-29T11:59:23.212Z,22.30
2022-10-29T12:00:25.081Z,22.40
2022-10-29T12:01:48.299Z,22.40
2022-10-29T12:03:08.270Z,22.40
2022-10-29T12:04:28.676Z,22.40
2022-10-29T12:05:42.076Z,22.40
2022-10-29T12:06:58.220Z,22.50
2022-10-29T12:08:16.698Z,22.50
2022-10-29T12:09:42.984Z,22.50
2022-10-29T12:11:08.882Z,22.50
2022-10-29T12:12:21.523Z,22.50
2022-10-29T12:13:47.729Z,22.50
2022-10-29T12:15:02.306Z,22.50
2022-10-29T12:16:25.627Z,22.60
2022-10-29T12:18:00.269Z,22.60
2022-10-29T12:19:12.817Z,22.50
2022-10-29T12:20:35.585Z,22.50
2022-10-29T12:21:50.430Z,22.60
2022-10-29T12:23:25.353Z,22.70
2022-10-29T12:24:38.371Z,22.70
2022-10-29T12:25:42.518Z,22.80
2022-10-29T12:27:03.130Z,22.90
2022-10-29T12:28:27.699Z,22.90
2022-10-29T12:29:47.718Z,23.00
2022-10-29T12:30:51.887Z,23.00
2022-10-29T12:32:03.703Z,23.10
2022-10-29T12:33:22.718Z,23.10
2022-10-29T12:34:33.861Z,23.10
2022-10-29T12:35:45.882Z,23.20
2022-10-29T12:37:10.202Z,23.20
2022-10-29T12:38:41.123Z,23.30
2022-10-29T12:39:50.549Z,23.30
2022-10-29T12:41:00.649Z,23.40
2022-10-29T12:42:16.563Z,23.40
2022-10-29T12:43:29.919Z,23.40
2022-10-29T12:44:45.154Z,23.50
2022-10-29T12:47:35.826Z,23.60
2022-10-29T12:48:53.544Z,23.60
2022-10-29T12:49:55.320Z,23.60
2022-10-29T12:51:08.519Z,23.60
2022-10-29T12:52:28.328Z,23.60
2022-10-29T12:54:08.502Z,23.60
2022-10-29T12:55:13.548Z,23.70
2022-10-29T12:56:16.652Z,23.60
2022-10-29T12:57:30.586Z,23.60
2022-10-29T12:58:50.457Z,23.60
2022-10-29T12:59:51.926Z,23.70
2022-10-29T13:00:53.452Z,23.70
2022-10-29T13:02:12.318Z,23.60
2022-10-29T13:03:54.768Z,23.70
2022-10-29T13:05:11.246Z,23.70
2022-10-29T13:06:44.051Z,23.80
2022-10-29T13:07:45.516Z,23.80
2022-10-29T13:08:57.123Z,23.80
2022-10-29T13:10:28.554Z,23.80
2022-10-29T13:11:44.337Z,23.90
2022-10-29T13:13:06.965Z,24.00
2022-10-29T13:14:08.996Z,24.00
2022-10-29T13:15:15.559Z,24.00
2022-10-29T13:16:21.779Z,24.00
2022-10-29T13:17:29.224Z,24.10
2022-10-29T13:18:41.290Z,24.10
2022-10-29T13:20:06.370Z,24.20
2022-10-29T13:21:07.846Z,24.30
2022-10-29T13:22:15.201Z,24.40
2022-10-29T13:23:22.550Z,24.40
2022-10-29T13:24:25.252Z,24.50
2022-10-29T13:25:38.294Z,24.50
2022-10-29T13:27:22.868Z,24.60
2022-10-29T13:28:24.265Z,24.60
2022-10-29T13:29:45.519Z,24.60
2022-10-29T13:30:49.546Z,24.60
2022-10-29T13:31:51.310Z,24.60
2022-10-29T13:32:53.996Z,24.70
2022-10-29T13:33:55.854Z,24.70
2022-10-29T13:34:59.920Z,24.70
2022-10-29T13:36:05.590Z,24.70
2022-10-29T13:37:49.132Z,24.70
2022-10-29T13:39:04.292Z,24.80
2022-10-29T13:40:23.757Z,24.80
2022-10-29T13:41:29.302Z,24.80
2022-10-29T13:42:30.773Z,24.80
2022-10-29T13:43:33.381Z,24.70
2022-10-29T13:44:37.862Z,24.60
2022-10-29T13:45:45.228Z,24.60
2022-10-29T13:46:55.608Z,24.60
2022-10-29T13:48:01.808Z,24.50
2022-10-29T13:49:11.240Z,24.40
2022-10-29T13:50:17.576Z,24.30
2022-10-29T13:51:50.108Z,24.30
2022-10-29T13:52:55.186Z,24.20
2022-10-29T13:54:10.472Z,24.10
2022-10-29T13:55:15.387Z,24.00
2022-10-29T13:56:42.942Z,24.00
2022-10-29T13:57:59.514Z,23.90
2022-10-29T13:59:06.643Z,23.80
2022-10-29T14:00:30.188Z,23.70
2022-10-29T14:01:33.825Z,23.60
2022-10-29T14:02:53.276Z,23.50
2022-10-29T14:04:06.604Z,23.50
2022-10-29T14:05:11.033Z,23.50
2022-10-29T14:06:20.810Z,23.40
2022-10-29T14:07:30.217Z,23.30
2022-10-29T14:08:40.229Z,23.30
2022-10-29T14:09:49.256Z,23.20
2022-10-29T14:10:54.790Z,23.20
2022-10-29T14:12:02.964Z,23.10
2022-10-29T14:13:23.511Z,23.10
2022-10-29T14:14:58.216Z,23.00
2022-10-29T14:16:05.406Z,22.90
2022-10-29T14:17:17.789Z,22.90
2022-10-29T14:18:27.802Z,22.80
2022-10-29T14:19:29.160Z,22.90
2022-10-29T14:20:30.548Z,22.80
2022-10-29T14:21:38.020Z,22.70
2022-10-29T14:22:41.010Z,22.70
2022-10-29T14:24:04.200Z,22.70
2022-10-29T14:25:24.435Z,22.70
2022-10-29T14:26:27.341Z,22.60
2022-10-29T14:27:29.620Z,22.60
2022-10-29T14:28:33.316Z,22.60
2022-10-29T14:29:34.942Z,22.60
2022-10-29T14:30:36.717Z,22.50
2022-10-29T14:31:38.361Z,22.50
2022-10-29T14:32:40.469Z,22.50
2022-10-29T14:33:51.723Z,22.50
2022-10-29T14:34:53.577Z,22.50
2022-10-29T14:36:04.630Z,22.50
2022-10-29T14:37:13.811Z,22.50
2022-10-29T14:38:17.059Z,22.50
2022-10-29T14:39:55.511Z,22.50
2022-10-29T14:40:59.555Z,22.40